sensor_id;sensor_type;location;lat;lon;timestamp;P1;durP1;ratioP1;P2;durP2;ratioP2
9420;SDS011;4749;51.398;5.466;2023-04-15T00:01:09;7.90;;;3.50;;
9420;SDS011;4749;51.398;5.466;2023-04-15T00:03:37;10.93;;;3.50;;
9420;SDS011;4749;51.398;5.466;2023-04-15T00:06:04;6.93;;;3.20;;
9420;SDS011;4749;51.398;5.466;2023-04-15T00:08:32;7.77;;;3.10;;
9420;SDS011;4749;51.398;5.466;2023-04-15T00:10:59;6.07;;;3.13;;
9420;SDS011;4749;51.398;5.466;2023-04-15T00:13:28;8.57;;;3.10;;
9420;SDS011;4749;51.398;5.466;2023-04-15T00:15:56;7.43;;;3.57;;
9420;SDS011;4749;51.398;5.466;2023-04-15T00:18:23;7.30;;;3.30;;
9420;SDS011;4749;51.398;5.466;2023-04-15T00:20:50;6.03;;;3.53;;
9420;SDS011;4749;51.398;5.466;2023-04-15T00:23:17;9.07;;;3.80;;
9420;SDS011;4749;51.398;5.466;2023-04-15T00:25:45;6.70;;;3.20;;
9420;SDS011;4749;51.398;5.466;2023-04-15T00:28:12;7.10;;;3.90;;
9420;SDS011;4749;51.398;5.466;2023-04-15T00:30:40;9.70;;;3.30;;
9420;SDS011;4749;51.398;5.466;2023-04-15T00:33:07;7.87;;;3.50;;
9420;SDS011;4749;51.398;5.466;2023-04-15T00:35:35;7.93;;;3.20;;
9420;SDS011;4749;51.398;5.466;2023-04-15T00:38:04;7.77;;;3.17;;
9420;SDS011;4749;51.398;5.466;2023-04-15T00:40:33;6.13;;;3.37;;
9420;SDS011;4749;51.398;5.466;2023-04-15T00:43:01;10.27;;;4.27;;
9420;SDS011;4749;51.398;5.466;2023-04-15T00:45:29;7.67;;;3.47;;
9420;SDS011;4749;51.398;5.466;2023-04-15T00:47:57;9.33;;;3.97;;
9420;SDS011;4749;51.398;5.466;2023-04-15T00:50:25;7.80;;;3.70;;
9420;SDS011;4749;51.398;5.466;2023-04-15T00:52:52;7.60;;;3.67;;
9420;SDS011;4749;51.398;5.466;2023-04-15T00:55:19;10.30;;;3.80;;
9420;SDS011;4749;51.398;5.466;2023-04-15T00:57:46;8.10;;;3.70;;
9420;SDS011;4749;51.398;5.466;2023-04-15T01:00:14;6.90;;;4.03;;
9420;SDS011;4749;51.398;5.466;2023-04-15T01:05:20;5.73;;;3.50;;
9420;SDS011;4749;51.398;5.466;2023-04-15T01:08:08;4.33;;;3.20;;
9420;SDS011;4749;51.398;5.466;2023-04-15T01:10:56;12.57;;;3.57;;
9420;SDS011;4749;51.398;5.466;2023-04-15T01:13:47;6.27;;;3.53;;
9420;SDS011;4749;51.398;5.466;2023-04-15T01:16:35;9.00;;;4.10;;
9420;SDS011;4749;51.398;5.466;2023-04-15T01:19:25;7.63;;;4.17;;
9420;SDS011;4749;51.398;5.466;2023-04-15T01:22:13;10.57;;;4.53;;
9420;SDS011;4749;51.398;5.466;2023-04-15T01:25:06;8.37;;;4.83;;
9420;SDS011;4749;51.398;5.466;2023-04-15T01:27:58;8.70;;;4.40;;
9420;SDS011;4749;51.398;5.466;2023-04-15T01:30:46;10.87;;;4.73;;
9420;SDS011;4749;51.398;5.466;2023-04-15T01:33:34;10.23;;;4.70;;
9420;SDS011;4749;51.398;5.466;2023-04-15T01:36:22;7.93;;;4.90;;
9420;SDS011;4749;51.398;5.466;2023-04-15T01:39:09;10.13;;;4.87;;
9420;SDS011;4749;51.398;5.466;2023-04-15T01:41:57;10.67;;;5.67;;
9420;SDS011;4749;51.398;5.466;2023-04-15T01:44:44;10.83;;;5.23;;
9420;SDS011;4749;51.398;5.466;2023-04-15T01:47:32;10.00;;;5.73;;
9420;SDS011;4749;51.398;5.466;2023-04-15T01:50:19;8.77;;;5.47;;
9420;SDS011;4749;51.398;5.466;2023-04-15T01:53:07;9.90;;;5.40;;
9420;SDS011;4749;51.398;5.466;2023-04-15T01:55:55;8.23;;;6.23;;
9420;SDS011;4749;51.398;5.466;2023-04-15T01:58:42;8.20;;;5.13;;
9420;SDS011;4749;51.398;5.466;2023-04-15T02:01:30;10.97;;;6.50;;
9420;SDS011;4749;51.398;5.466;2023-04-15T02:04:18;10.43;;;5.93;;
9420;SDS011;4749;51.398;5.466;2023-04-15T02:07:06;11.57;;;6.23;;
9420;SDS011;4749;51.398;5.466;2023-04-15T02:09:54;11.70;;;5.63;;
9420;SDS011;4749;51.398;5.466;2023-04-15T02:12:41;13.23;;;5.67;;
9420;SDS011;4749;51.398;5.466;2023-04-15T02:15:29;10.33;;;6.93;;
9420;SDS011;4749;51.398;5.466;2023-04-15T02:18:17;12.53;;;5.67;;
9420;SDS011;4749;51.398;5.466;2023-04-15T02:21:04;10.87;;;6.23;;
9420;SDS011;4749;51.398;5.466;2023-04-15T02:23:52;11.10;;;6.10;;
9420;SDS011;4749;51.398;5.466;2023-04-15T02:26:40;9.53;;;6.57;;
9420;SDS011;4749;51.398;5.466;2023-04-15T02:29:27;7.67;;;5.87;;
9420;SDS011;4749;51.398;5.466;2023-04-15T02:32:16;11.37;;;6.73;;
9420;SDS011;4749;51.398;5.466;2023-04-15T02:35:04;8.53;;;6.93;;
9420;SDS011;4749;51.398;5.466;2023-04-15T02:37:54;11.13;;;6.63;;
9420;SDS011;4749;51.398;5.466;2023-04-15T02:40:42;10.67;;;7.40;;
9420;SDS011;4749;51.398;5.466;2023-04-15T02:43:29;12.27;;;7.23;;
9420;SDS011;4749;51.398;5.466;2023-04-15T02:46:17;10.07;;;7.00;;
9420;SDS011;4749;51.398;5.466;2023-04-15T02:49:04;15.00;;;7.23;;
9420;SDS011;4749;51.398;5.466;2023-04-15T02:51:52;12.60;;;7.87;;
9420;SDS011;4749;51.398;5.466;2023-04-15T02:54:39;13.93;;;7.73;;
9420;SDS011;4749;51.398;5.466;2023-04-15T02:57:06;14.13;;;7.53;;
9420;SDS011;4749;51.398;5.466;2023-04-15T02:59:34;11.33;;;8.20;;
9420;SDS011;4749;51.398;5.466;2023-04-15T03:02:01;12.47;;;6.90;;
9420;SDS011;4749;51.398;5.466;2023-04-15T03:04:28;12.10;;;7.67;;
9420;SDS011;4749;51.398;5.466;2023-04-15T03:06:56;13.90;;;7.80;;
9420;SDS011;4749;51.398;5.466;2023-04-15T03:09:23;13.80;;;7.23;;
9420;SDS011;4749;51.398;5.466;2023-04-15T03:11:50;17.20;;;7.60;;
9420;SDS011;4749;51.398;5.466;2023-04-15T03:14:18;12.33;;;7.63;;
9420;SDS011;4749;51.398;5.466;2023-04-15T03:16:47;13.23;;;7.50;;
9420;SDS011;4749;51.398;5.466;2023-04-15T03:19:15;13.87;;;7.60;;
9420;SDS011;4749;51.398;5.466;2023-04-15T03:21:43;11.10;;;7.77;;
9420;SDS011;4749;51.398;5.466;2023-04-15T03:24:10;13.80;;;8.10;;
9420;SDS011;4749;51.398;5.466;2023-04-15T03:26:37;14.90;;;9.03;;
9420;SDS011;4749;51.398;5.466;2023-04-15T03:29:04;10.67;;;8.10;;
9420;SDS011;4749;51.398;5.466;2023-04-15T03:31:31;13.27;;;8.80;;
9420;SDS011;4749;51.398;5.466;2023-04-15T03:33:58;12.27;;;8.70;;
9420;SDS011;4749;51.398;5.466;2023-04-15T03:36:27;14.30;;;8.60;;
9420;SDS011;4749;51.398;5.466;2023-04-15T03:38:57;15.43;;;9.53;;
9420;SDS011;4749;51.398;5.466;2023-04-15T03:41:25;14.43;;;8.70;;
9420;SDS011;4749;51.398;5.466;2023-04-15T03:43:53;17.87;;;9.17;;
9420;SDS011;4749;51.398;5.466;2023-04-15T03:46:20;12.30;;;8.77;;
9420;SDS011;4749;51.398;5.466;2023-04-15T03:48:48;12.87;;;8.40;;
9420;SDS011;4749;51.398;5.466;2023-04-15T03:51:15;17.67;;;8.53;;
9420;SDS011;4749;51.398;5.466;2023-04-15T03:53:42;13.50;;;8.40;;
9420;SDS011;4749;51.398;5.466;2023-04-15T03:56:09;15.23;;;9.03;;
9420;SDS011;4749;51.398;5.466;2023-04-15T03:58:36;17.13;;;8.60;;
9420;SDS011;4749;51.398;5.466;2023-04-15T04:01:04;11.77;;;8.30;;
9420;SDS011;4749;51.398;5.466;2023-04-15T04:03:31;14.07;;;8.50;;
9420;SDS011;4749;51.398;5.466;2023-04-15T04:05:58;12.63;;;8.63;;
9420;SDS011;4749;51.398;5.466;2023-04-15T04:08:26;11.67;;;8.67;;
9420;SDS011;4749;51.398;5.466;2023-04-15T04:10:53;13.23;;;8.50;;
9420;SDS011;4749;51.398;5.466;2023-04-15T04:13:20;12.93;;;8.97;;
9420;SDS011;4749;51.398;5.466;2023-04-15T04:15:47;13.47;;;8.40;;
9420;SDS011;4749;51.398;5.466;2023-04-15T04:18:14;10.77;;;7.93;;
9420;SDS011;4749;51.398;5.466;2023-04-15T04:20:42;14.03;;;8.50;;
9420;SDS011;4749;51.398;5.466;2023-04-15T04:23:09;12.23;;;8.27;;
9420;SDS011;4749;51.398;5.466;2023-04-15T04:25:36;11.50;;;8.40;;
9420;SDS011;4749;51.398;5.466;2023-04-15T04:28:04;11.77;;;8.07;;
9420;SDS011;4749;51.398;5.466;2023-04-15T04:30:31;11.33;;;8.70;;
9420;SDS011;4749;51.398;5.466;2023-04-15T04:32:58;14.23;;;8.83;;
9420;SDS011;4749;51.398;5.466;2023-04-15T04:35:26;11.40;;;8.23;;
9420;SDS011;4749;51.398;5.466;2023-04-15T04:37:53;12.60;;;7.57;;
9420;SDS011;4749;51.398;5.466;2023-04-15T04:40:20;10.80;;;8.13;;
9420;SDS011;4749;51.398;5.466;2023-04-15T04:42:47;15.13;;;8.53;;
9420;SDS011;4749;51.398;5.466;2023-04-15T04:45:14;14.00;;;8.40;;
9420;SDS011;4749;51.398;5.466;2023-04-15T04:47:41;14.00;;;8.13;;
9420;SDS011;4749;51.398;5.466;2023-04-15T04:50:10;15.80;;;8.20;;
9420;SDS011;4749;51.398;5.466;2023-04-15T04:52:39;13.43;;;8.03;;
9420;SDS011;4749;51.398;5.466;2023-04-15T04:55:06;13.30;;;8.00;;
9420;SDS011;4749;51.398;5.466;2023-04-15T04:57:34;13.37;;;8.73;;
9420;SDS011;4749;51.398;5.466;2023-04-15T05:00:05;10.63;;;7.57;;
9420;SDS011;4749;51.398;5.466;2023-04-15T05:02:34;10.87;;;7.97;;
9420;SDS011;4749;51.398;5.466;2023-04-15T05:05:02;11.83;;;8.53;;
9420;SDS011;4749;51.398;5.466;2023-04-15T05:07:29;11.10;;;7.27;;
9420;SDS011;4749;51.398;5.466;2023-04-15T05:09:56;12.27;;;8.03;;
9420;SDS011;4749;51.398;5.466;2023-04-15T05:12:23;11.07;;;7.37;;
9420;SDS011;4749;51.398;5.466;2023-04-15T05:14:51;13.07;;;7.60;;
9420;SDS011;4749;51.398;5.466;2023-04-15T05:17:18;10.60;;;7.80;;
9420;SDS011;4749;51.398;5.466;2023-04-15T05:19:45;11.63;;;7.80;;
9420;SDS011;4749;51.398;5.466;2023-04-15T05:22:12;11.97;;;7.73;;
9420;SDS011;4749;51.398;5.466;2023-04-15T05:24:39;10.97;;;7.90;;
9420;SDS011;4749;51.398;5.466;2023-04-15T05:27:06;12.90;;;8.20;;
9420;SDS011;4749;51.398;5.466;2023-04-15T05:29:35;15.20;;;8.17;;
9420;SDS011;4749;51.398;5.466;2023-04-15T05:32:02;11.47;;;8.00;;
9420;SDS011;4749;51.398;5.466;2023-04-15T05:34:30;12.67;;;7.90;;
9420;SDS011;4749;51.398;5.466;2023-04-15T05:36:57;11.60;;;7.40;;
9420;SDS011;4749;51.398;5.466;2023-04-15T05:39:24;14.60;;;7.90;;
9420;SDS011;4749;51.398;5.466;2023-04-15T05:41:51;14.27;;;8.43;;
9420;SDS011;4749;51.398;5.466;2023-04-15T05:44:19;11.37;;;7.87;;
9420;SDS011;4749;51.398;5.466;2023-04-15T05:46:46;13.07;;;8.30;;
9420;SDS011;4749;51.398;5.466;2023-04-15T05:49:13;11.53;;;7.93;;
9420;SDS011;4749;51.398;5.466;2023-04-15T05:51:40;11.20;;;7.07;;
9420;SDS011;4749;51.398;5.466;2023-04-15T05:54:07;12.53;;;7.60;;
9420;SDS011;4749;51.398;5.466;2023-04-15T05:56:35;11.80;;;7.10;;
9420;SDS011;4749;51.398;5.466;2023-04-15T05:59:02;10.93;;;7.50;;
9420;SDS011;4749;51.398;5.466;2023-04-15T06:01:29;11.03;;;7.90;;
9420;SDS011;4749;51.398;5.466;2023-04-15T06:03:56;12.07;;;7.50;;
9420;SDS011;4749;51.398;5.466;2023-04-15T06:06:23;12.97;;;7.87;;
9420;SDS011;4749;51.398;5.466;2023-04-15T06:08:52;14.10;;;8.23;;
9420;SDS011;4749;51.398;5.466;2023-04-15T06:11:21;13.47;;;8.57;;
9420;SDS011;4749;51.398;5.466;2023-04-15T06:13:48;10.40;;;8.13;;
9420;SDS011;4749;51.398;5.466;2023-04-15T06:16:15;11.27;;;7.67;;
9420;SDS011;4749;51.398;5.466;2023-04-15T06:18:43;14.63;;;8.13;;
9420;SDS011;4749;51.398;5.466;2023-04-15T06:21:10;10.67;;;8.23;;
9420;SDS011;4749;51.398;5.466;2023-04-15T06:23:37;11.37;;;8.13;;
9420;SDS011;4749;51.398;5.466;2023-04-15T06:26:06;12.07;;;7.77;;
9420;SDS011;4749;51.398;5.466;2023-04-15T06:28:35;14.33;;;8.17;;
9420;SDS011;4749;51.398;5.466;2023-04-15T06:31:02;12.90;;;8.07;;
9420;SDS011;4749;51.398;5.466;2023-04-15T06:33:30;10.00;;;7.53;;
9420;SDS011;4749;51.398;5.466;2023-04-15T06:35:57;16.83;;;8.67;;
9420;SDS011;4749;51.398;5.466;2023-04-15T06:38:24;10.67;;;7.77;;
9420;SDS011;4749;51.398;5.466;2023-04-15T06:40:51;10.97;;;8.10;;
9420;SDS011;4749;51.398;5.466;2023-04-15T06:43:18;11.77;;;8.10;;
9420;SDS011;4749;51.398;5.466;2023-04-15T06:45:46;13.00;;;8.10;;
9420;SDS011;4749;51.398;5.466;2023-04-15T06:48:13;10.80;;;8.13;;
9420;SDS011;4749;51.398;5.466;2023-04-15T06:50:40;10.67;;;8.03;;
9420;SDS011;4749;51.398;5.466;2023-04-15T06:53:08;11.97;;;7.67;;
9420;SDS011;4749;51.398;5.466;2023-04-15T06:55:35;11.00;;;8.20;;
9420;SDS011;4749;51.398;5.466;2023-04-15T06:58:02;11.93;;;7.40;;
9420;SDS011;4749;51.398;5.466;2023-04-15T07:00:29;12.63;;;8.50;;
9420;SDS011;4749;51.398;5.466;2023-04-15T07:02:56;10.87;;;7.87;;
9420;SDS011;4749;51.398;5.466;2023-04-15T07:05:23;13.30;;;7.78;;
9420;SDS011;4749;51.398;5.466;2023-04-15T07:07:51;12.27;;;7.73;;
9420;SDS011;4749;51.398;5.466;2023-04-15T07:10:18;8.53;;;7.20;;
9420;SDS011;4749;51.398;5.466;2023-04-15T07:12:47;10.75;;;7.60;;
9420;SDS011;4749;51.398;5.466;2023-04-15T07:15:14;10.13;;;7.20;;
9420;SDS011;4749;51.398;5.466;2023-04-15T07:17:42;10.50;;;7.13;;
9420;SDS011;4749;51.398;5.466;2023-04-15T07:20:09;8.63;;;6.93;;
9420;SDS011;4749;51.398;5.466;2023-04-15T07:22:37;11.18;;;7.25;;
9420;SDS011;4749;51.398;5.466;2023-04-15T07:25:05;12.65;;;7.72;;
9420;SDS011;4749;51.398;5.466;2023-04-15T07:27:34;8.93;;;7.32;;
9420;SDS011;4749;51.398;5.466;2023-04-15T07:30:01;9.43;;;7.20;;
9420;SDS011;4749;51.398;5.466;2023-04-15T07:32:28;9.93;;;7.25;;
9420;SDS011;4749;51.398;5.466;2023-04-15T07:34:56;8.43;;;6.75;;
9420;SDS011;4749;51.398;5.466;2023-04-15T07:37:23;10.07;;;7.20;;
9420;SDS011;4749;51.398;5.466;2023-04-15T07:39:50;8.75;;;7.00;;
9420;SDS011;4749;51.398;5.466;2023-04-15T07:42:18;7.57;;;6.00;;
9420;SDS011;4749;51.398;5.466;2023-04-15T07:44:45;9.93;;;6.75;;
9420;SDS011;4749;51.398;5.466;2023-04-15T07:47:12;8.23;;;6.75;;
9420;SDS011;4749;51.398;5.466;2023-04-15T07:49:40;9.90;;;6.50;;
9420;SDS011;4749;51.398;5.466;2023-04-15T07:52:08;8.57;;;6.07;;
9420;SDS011;4749;51.398;5.466;2023-04-15T07:54:36;8.02;;;6.25;;
9420;SDS011;4749;51.398;5.466;2023-04-15T07:57:03;9.60;;;6.30;;
9420;SDS011;4749;51.398;5.466;2023-04-15T07:59:30;9.52;;;5.28;;
9420;SDS011;4749;51.398;5.466;2023-04-15T08:01:58;6.10;;;5.30;;
9420;SDS011;4749;51.398;5.466;2023-04-15T08:04:26;8.27;;;5.47;;
9420;SDS011;4749;51.398;5.466;2023-04-15T08:06:54;6.95;;;5.03;;
9420;SDS011;4749;51.398;5.466;2023-04-15T08:09:21;7.43;;;5.05;;
9420;SDS011;4749;51.398;5.466;2023-04-15T08:11:48;7.97;;;4.85;;
9420;SDS011;4749;51.398;5.466;2023-04-15T08:14:16;7.53;;;4.35;;
9420;SDS011;4749;51.398;5.466;2023-04-15T08:16:44;6.13;;;4.20;;
9420;SDS011;4749;51.398;5.466;2023-04-15T08:19:12;5.80;;;4.53;;
9420;SDS011;4749;51.398;5.466;2023-04-15T08:21:39;6.13;;;4.35;;
9420;SDS011;4749;51.398;5.466;2023-04-15T08:24:06;5.65;;;3.90;;
9420;SDS011;4749;51.398;5.466;2023-04-15T08:26:33;5.53;;;4.07;;
9420;SDS011;4749;51.398;5.466;2023-04-15T08:29:00;7.47;;;4.28;;
9420;SDS011;4749;51.398;5.466;2023-04-15T08:31:28;4.50;;;3.88;;
9420;SDS011;4749;51.398;5.466;2023-04-15T08:33:56;5.93;;;4.55;;
9420;SDS011;4749;51.398;5.466;2023-04-15T08:36:24;5.68;;;4.55;;
9420;SDS011;4749;51.398;5.466;2023-04-15T08:38:52;7.30;;;4.93;;
9420;SDS011;4749;51.398;5.466;2023-04-15T08:41:20;6.68;;;5.30;;
9420;SDS011;4749;51.398;5.466;2023-04-15T08:43:53;6.03;;;4.97;;
9420;SDS011;4749;51.398;5.466;2023-04-15T08:46:27;8.02;;;5.03;;
9420;SDS011;4749;51.398;5.466;2023-04-15T08:48:57;6.75;;;5.60;;
9420;SDS011;4749;51.398;5.466;2023-04-15T08:51:24;6.47;;;4.80;;
9420;SDS011;4749;51.398;5.466;2023-04-15T08:53:52;7.70;;;5.30;;
9420;SDS011;4749;51.398;5.466;2023-04-15T08:56:22;7.13;;;4.50;;
9420;SDS011;4749;51.398;5.466;2023-04-15T08:58:52;7.60;;;4.68;;
9420;SDS011;4749;51.398;5.466;2023-04-15T09:01:19;7.35;;;4.70;;
9420;SDS011;4749;51.398;5.466;2023-04-15T09:03:48;7.18;;;4.28;;
9420;SDS011;4749;51.398;5.466;2023-04-15T09:06:16;4.60;;;3.20;;
9420;SDS011;4749;51.398;5.466;2023-04-15T09:08:44;5.22;;;3.22;;
9420;SDS011;4749;51.398;5.466;2023-04-15T09:11:11;4.57;;;3.58;;
9420;SDS011;4749;51.398;5.466;2023-04-15T09:13:40;3.72;;;3.30;;
9420;SDS011;4749;51.398;5.466;2023-04-15T09:16:07;4.43;;;3.50;;
9420;SDS011;4749;51.398;5.466;2023-04-15T09:18:36;5.72;;;3.20;;
9420;SDS011;4749;51.398;5.466;2023-04-15T09:21:08;4.75;;;2.95;;
9420;SDS011;4749;51.398;5.466;2023-04-15T09:23:38;4.63;;;3.50;;
9420;SDS011;4749;51.398;5.466;2023-04-15T09:26:19;4.50;;;3.13;;
9420;SDS011;4749;51.398;5.466;2023-04-15T09:29:01;7.05;;;3.53;;
9420;SDS011;4749;51.398;5.466;2023-04-15T09:31:35;4.78;;;3.42;;
9420;SDS011;4749;51.398;5.466;2023-04-15T09:34:03;5.03;;;3.22;;
9420;SDS011;4749;51.398;5.466;2023-04-15T09:39:16;4.95;;;3.40;;
9420;SDS011;4749;51.398;5.466;2023-04-15T09:41:43;5.57;;;3.53;;
9420;SDS011;4749;51.398;5.466;2023-04-15T09:44:23;5.03;;;3.38;;
9420;SDS011;4749;51.398;5.466;2023-04-15T09:46:52;4.93;;;3.42;;
9420;SDS011;4749;51.398;5.466;2023-04-15T09:49:19;4.75;;;3.40;;
9420;SDS011;4749;51.398;5.466;2023-04-15T09:51:46;5.60;;;2.80;;
9420;SDS011;4749;51.398;5.466;2023-04-15T09:54:33;3.42;;;3.03;;
9420;SDS011;4749;51.398;5.466;2023-04-15T09:57:06;5.30;;;3.25;;
9420;SDS011;4749;51.398;5.466;2023-04-15T09:59:35;4.85;;;3.00;;
9420;SDS011;4749;51.398;5.466;2023-04-15T10:02:03;4.20;;;2.83;;
9420;SDS011;4749;51.398;5.466;2023-04-15T10:04:34;5.00;;;3.58;;
9420;SDS011;4749;51.398;5.466;2023-04-15T10:07:05;4.75;;;3.47;;
9420;SDS011;4749;51.398;5.466;2023-04-15T10:09:37;4.22;;;2.95;;
9420;SDS011;4749;51.398;5.466;2023-04-15T10:12:05;4.05;;;2.60;;
9420;SDS011;4749;51.398;5.466;2023-04-15T10:14:36;2.63;;;2.30;;
9420;SDS011;4749;51.398;5.466;2023-04-15T10:17:04;2.88;;;2.03;;
9420;SDS011;4749;51.398;5.466;2023-04-15T10:19:33;3.15;;;2.17;;
9420;SDS011;4749;51.398;5.466;2023-04-15T10:22:03;3.65;;;2.75;;
9420;SDS011;4749;51.398;5.466;2023-04-15T10:24:31;3.08;;;2.65;;
9420;SDS011;4749;51.398;5.466;2023-04-15T10:26:59;3.13;;;2.80;;
9420;SDS011;4749;51.398;5.466;2023-04-15T10:29:29;5.53;;;3.15;;
9420;SDS011;4749;51.398;5.466;2023-04-15T10:31:56;3.60;;;2.90;;
9420;SDS011;4749;51.398;5.466;2023-04-15T10:34:25;4.00;;;3.35;;
9420;SDS011;4749;51.398;5.466;2023-04-15T10:36:54;3.92;;;2.90;;
9420;SDS011;4749;51.398;5.466;2023-04-15T10:44:36;3.95;;;2.47;;
9420;SDS011;4749;51.398;5.466;2023-04-15T10:47:11;5.45;;;2.20;;
9420;SDS011;4749;51.398;5.466;2023-04-15T10:49:57;2.63;;;2.30;;
9420;SDS011;4749;51.398;5.466;2023-04-15T10:52:27;2.90;;;2.08;;
9420;SDS011;4749;51.398;5.466;2023-04-15T10:57:44;3.58;;;2.05;;
9420;SDS011;4749;51.398;5.466;2023-04-15T11:00:14;2.63;;;1.75;;
9420;SDS011;4749;51.398;5.466;2023-04-15T11:08:10;2.67;;;1.92;;
9420;SDS011;4749;51.398;5.466;2023-04-15T11:15:37;2.08;;;1.60;;
9420;SDS011;4749;51.398;5.466;2023-04-15T11:18:11;1.98;;;1.30;;
9420;SDS011;4749;51.398;5.466;2023-04-15T11:20:45;3.05;;;1.50;;
9420;SDS011;4749;51.398;5.466;2023-04-15T11:23:13;2.13;;;1.42;;
9420;SDS011;4749;51.398;5.466;2023-04-15T11:25:42;1.42;;;1.27;;
9420;SDS011;4749;51.398;5.466;2023-04-15T11:28:10;3.42;;;1.50;;
9420;SDS011;4749;51.398;5.466;2023-04-15T11:30:39;3.30;;;1.83;;
9420;SDS011;4749;51.398;5.466;2023-04-15T11:33:08;3.45;;;1.73;;
9420;SDS011;4749;51.398;5.466;2023-04-15T11:35:42;3.45;;;1.40;;
9420;SDS011;4749;51.398;5.466;2023-04-15T11:38:11;1.63;;;1.10;;
9420;SDS011;4749;51.398;5.466;2023-04-15T11:40:41;2.08;;;1.30;;
9420;SDS011;4749;51.398;5.466;2023-04-15T11:43:16;3.22;;;1.40;;
9420;SDS011;4749;51.398;5.466;2023-04-15T11:45:50;2.10;;;1.58;;
9420;SDS011;4749;51.398;5.466;2023-04-15T11:48:27;2.20;;;1.85;;
9420;SDS011;4749;51.398;5.466;2023-04-15T11:51:03;2.13;;;1.55;;
9420;SDS011;4749;51.398;5.466;2023-04-15T11:53:45;2.10;;;1.60;;
9420;SDS011;4749;51.398;5.466;2023-04-15T11:56:23;3.58;;;2.10;;
9420;SDS011;4749;51.398;5.466;2023-04-15T11:58:53;3.70;;;2.05;;
9420;SDS011;4749;51.398;5.466;2023-04-15T12:01:33;3.22;;;2.03;;
9420;SDS011;4749;51.398;5.466;2023-04-15T12:04:09;2.03;;;1.63;;
9420;SDS011;4749;51.398;5.466;2023-04-15T12:06:47;2.60;;;1.73;;
9420;SDS011;4749;51.398;5.466;2023-04-15T12:09:15;2.97;;;1.73;;
9420;SDS011;4749;51.398;5.466;2023-04-15T12:11:43;3.97;;;1.70;;
9420;SDS011;4749;51.398;5.466;2023-04-15T12:16:53;2.15;;;1.60;;
9420;SDS011;4749;51.398;5.466;2023-04-15T12:19:39;2.92;;;1.30;;
9420;SDS011;4749;51.398;5.466;2023-04-15T12:22:09;1.73;;;1.40;;
9420;SDS011;4749;51.398;5.466;2023-04-15T12:24:40;2.33;;;1.67;;
9420;SDS011;4749;51.398;5.466;2023-04-15T12:27:15;2.35;;;1.75;;
9420;SDS011;4749;51.398;5.466;2023-04-15T12:29:43;2.05;;;1.65;;
9420;SDS011;4749;51.398;5.466;2023-04-15T12:32:13;2.63;;;1.95;;
9420;SDS011;4749;51.398;5.466;2023-04-15T12:34:52;2.00;;;1.65;;
9420;SDS011;4749;51.398;5.466;2023-04-15T12:37:19;2.13;;;1.70;;
9420;SDS011;4749;51.398;5.466;2023-04-15T12:39:48;3.30;;;1.65;;
9420;SDS011;4749;51.398;5.466;2023-04-15T12:42:16;2.38;;;1.75;;
9420;SDS011;4749;51.398;5.466;2023-04-15T12:44:44;3.00;;;1.52;;
9420;SDS011;4749;51.398;5.466;2023-04-15T12:47:12;1.67;;;1.45;;
9420;SDS011;4749;51.398;5.466;2023-04-15T12:49:39;3.15;;;1.83;;
9420;SDS011;4749;51.398;5.466;2023-04-15T12:52:06;2.45;;;1.70;;
9420;SDS011;4749;51.398;5.466;2023-04-15T12:54:34;2.25;;;1.38;;
9420;SDS011;4749;51.398;5.466;2023-04-15T12:57:01;2.60;;;1.80;;
9420;SDS011;4749;51.398;5.466;2023-04-15T12:59:32;4.95;;;2.33;;
9420;SDS011;4749;51.398;5.466;2023-04-15T13:02:00;2.47;;;2.03;;
9420;SDS011;4749;51.398;5.466;2023-04-15T13:04:28;3.15;;;1.70;;
9420;SDS011;4749;51.398;5.466;2023-04-15T13:06:58;2.72;;;1.98;;
9420;SDS011;4749;51.398;5.466;2023-04-15T13:09:26;2.72;;;1.70;;
9420;SDS011;4749;51.398;5.466;2023-04-15T13:11:54;2.45;;;1.60;;
9420;SDS011;4749;51.398;5.466;2023-04-15T13:14:22;3.65;;;1.95;;
9420;SDS011;4749;51.398;5.466;2023-04-15T13:16:51;2.35;;;1.65;;
9420;SDS011;4749;51.398;5.466;2023-04-15T13:19:19;2.47;;;1.70;;
9420;SDS011;4749;51.398;5.466;2023-04-15T13:21:46;2.90;;;2.00;;
9420;SDS011;4749;51.398;5.466;2023-04-15T13:24:13;3.35;;;1.70;;
9420;SDS011;4749;51.398;5.466;2023-04-15T13:26:40;2.20;;;1.58;;
9420;SDS011;4749;51.398;5.466;2023-04-15T13:29:07;2.22;;;1.70;;
9420;SDS011;4749;51.398;5.466;2023-04-15T13:31:35;3.58;;;1.55;;
9420;SDS011;4749;51.398;5.466;2023-04-15T13:34:02;3.50;;;1.80;;
9420;SDS011;4749;51.398;5.466;2023-04-15T13:36:29;2.75;;;1.60;;
9420;SDS011;4749;51.398;5.466;2023-04-15T13:38:57;2.58;;;1.20;;
9420;SDS011;4749;51.398;5.466;2023-04-15T13:41:25;2.28;;;1.63;;
9420;SDS011;4749;51.398;5.466;2023-04-15T13:43:52;2.20;;;1.33;;
9420;SDS011;4749;51.398;5.466;2023-04-15T13:46:19;1.33;;;1.10;;
9420;SDS011;4749;51.398;5.466;2023-04-15T13:48:46;2.22;;;1.40;;
9420;SDS011;4749;51.398;5.466;2023-04-15T13:51:13;1.45;;;1.00;;
9420;SDS011;4749;51.398;5.466;2023-04-15T13:53:40;1.65;;;1.08;;
9420;SDS011;4749;51.398;5.466;2023-04-15T13:56:07;2.17;;;1.20;;
9420;SDS011;4749;51.398;5.466;2023-04-15T13:58:36;2.00;;;1.30;;
9420;SDS011;4749;51.398;5.466;2023-04-15T14:01:04;2.15;;;1.10;;
9420;SDS011;4749;51.398;5.466;2023-04-15T14:03:35;2.35;;;1.20;;
9420;SDS011;4749;51.398;5.466;2023-04-15T14:06:04;1.30;;;1.20;;
9420;SDS011;4749;51.398;5.466;2023-04-15T14:08:32;2.80;;;1.35;;
9420;SDS011;4749;51.398;5.466;2023-04-15T14:10:59;1.65;;;1.30;;
9420;SDS011;4749;51.398;5.466;2023-04-15T14:13:26;2.95;;;1.50;;
9420;SDS011;4749;51.398;5.466;2023-04-15T14:15:54;1.10;;;1.00;;
9420;SDS011;4749;51.398;5.466;2023-04-15T14:18:22;3.95;;;1.23;;
9420;SDS011;4749;51.398;5.466;2023-04-15T14:20:49;3.38;;;1.70;;
9420;SDS011;4749;51.398;5.466;2023-04-15T14:23:17;1.70;;;1.35;;
9420;SDS011;4749;51.398;5.466;2023-04-15T14:25:44;2.38;;;1.40;;
9420;SDS011;4749;51.398;5.466;2023-04-15T14:28:13;2.63;;;1.50;;
9420;SDS011;4749;51.398;5.466;2023-04-15T14:30:41;1.50;;;1.10;;
9420;SDS011;4749;51.398;5.466;2023-04-15T14:33:08;2.58;;;1.30;;
9420;SDS011;4749;51.398;5.466;2023-04-15T14:35:35;1.65;;;1.25;;
9420;SDS011;4749;51.398;5.466;2023-04-15T14:38:03;2.38;;;1.10;;
9420;SDS011;4749;51.398;5.466;2023-04-15T14:40:32;1.83;;;1.30;;
9420;SDS011;4749;51.398;5.466;2023-04-15T14:42:59;1.45;;;1.00;;
9420;SDS011;4749;51.398;5.466;2023-04-15T14:45:26;1.55;;;1.25;;
9420;SDS011;4749;51.398;5.466;2023-04-15T14:47:53;1.45;;;0.93;;
9420;SDS011;4749;51.398;5.466;2023-04-15T14:50:21;1.92;;;1.10;;
9420;SDS011;4749;51.398;5.466;2023-04-15T14:52:48;0.82;;;0.80;;
9420;SDS011;4749;51.398;5.466;2023-04-15T14:55:15;1.67;;;1.00;;
9420;SDS011;4749;51.398;5.466;2023-04-15T14:57:42;1.20;;;0.82;;
9420;SDS011;4749;51.398;5.466;2023-04-15T15:00:10;3.85;;;1.00;;
9420;SDS011;4749;51.398;5.466;2023-04-15T15:02:41;3.17;;;0.90;;
9420;SDS011;4749;51.398;5.466;2023-04-15T15:05:09;2.13;;;0.98;;
9420;SDS011;4749;51.398;5.466;2023-04-15T15:07:37;1.27;;;0.80;;
9420;SDS011;4749;51.398;5.466;2023-04-15T15:10:06;1.30;;;1.00;;
9420;SDS011;4749;51.398;5.466;2023-04-15T15:12:33;3.55;;;1.10;;
9420;SDS011;4749;51.398;5.466;2023-04-15T15:15:02;1.33;;;0.80;;
9420;SDS011;4749;51.398;5.466;2023-04-15T15:17:44;1.80;;;0.80;;
9420;SDS011;4749;51.398;5.466;2023-04-15T15:20:12;1.15;;;0.80;;
9420;SDS011;4749;51.398;5.466;2023-04-15T15:22:39;1.17;;;0.82;;
9420;SDS011;4749;51.398;5.466;2023-04-15T15:25:06;1.65;;;0.90;;
9420;SDS011;4749;51.398;5.466;2023-04-15T15:27:33;3.13;;;1.08;;
9420;SDS011;4749;51.398;5.466;2023-04-15T15:30:03;1.15;;;0.98;;
9420;SDS011;4749;51.398;5.466;2023-04-15T15:32:32;2.60;;;0.90;;
9420;SDS011;4749;51.398;5.466;2023-04-15T15:34:59;1.10;;;0.80;;
9420;SDS011;4749;51.398;5.466;2023-04-15T15:37:26;1.33;;;0.80;;
9420;SDS011;4749;51.398;5.466;2023-04-15T15:39:55;3.67;;;1.13;;
9420;SDS011;4749;51.398;5.466;2023-04-15T15:42:24;1.60;;;0.70;;
9420;SDS011;4749;51.398;5.466;2023-04-15T15:44:51;2.28;;;0.95;;
9420;SDS011;4749;51.398;5.466;2023-04-15T15:47:18;1.08;;;0.80;;
9420;SDS011;4749;51.398;5.466;2023-04-15T15:49:47;1.52;;;0.90;;
9420;SDS011;4749;51.398;5.466;2023-04-15T15:52:14;1.98;;;0.77;;
9420;SDS011;4749;51.398;5.466;2023-04-15T15:54:41;1.30;;;0.65;;
9420;SDS011;4749;51.398;5.466;2023-04-15T15:57:08;1.48;;;0.90;;